Terminal Aerodrome Forecast
Issued by NWS

Current Version | Previous Version | Text Only | Print | Product List | Glossary On
Versions: 1 2 3 4 5 6 7 8 9 10 11 12 13 14 15 16
000
FTAK31 PAJN 312300
TAFAYA
TAF
PAYA 312332Z 0100/0124 06005KT P6SM SKC
     FM010700 06010KT P6SM SKC WS020/06030KT
     FM011800 06012KT P6SM SKC WS020/06040KT
      AMD LTD TO CLD VIS AND WIND 0101/0110=

USA.gov is the U.S. government's official web portal to all federal, state and local government web resources and services.